Time;durP1;ratioP1;P1;durP2;ratioP2;P2;SDS_P1;SDS_P2;PMS_P1;PMS_P2;Temp;Humidity;BMP_temperature;BMP_pressure;BME280_temperature;BME280_humidity;BME280_pressure;Samples;Min_cycle;Max_cycle;Signal;HPM_P1;HPM_P2
2021/04/07 00:02:05;;;;;;;0.70;0.60;;;0.20;99.90;;;0.65;100.00;-19676.91;4973822;28;20216;-68
2021/04/07 00:04:33;;;;;;;0.80;0.80;;;0.10;99.90;;;0.30;100.00;-20145.97;4973946;28;20652;-68
2021/04/07 00:07:00;;;;;;;0.70;0.60;;;0.10;99.90;;;0.32;100.00;-20156.34;4973997;28;20263;-68
2021/04/07 00:09:28;;;;;;;0.75;0.70;;;0.10;99.90;;;0.26;100.00;-20329.63;4973707;28;20648;-68
2021/04/07 00:11:55;;;;;;;0.75;0.70;;;0.00;99.90;;;0.30;100.00;-20406.97;4972833;28;20275;-69
2021/04/07 00:14:23;;;;;;;0.70;0.70;;;0.00;99.90;;;0.25;100.00;-20469.78;4973694;28;20731;-68
2021/04/07 00:16:50;;;;;;;0.80;0.75;;;0.00;99.90;;;0.40;100.00;-20441.88;4973678;28;20209;-69
2021/04/07 00:19:18;;;;;;;0.70;0.60;;;0.00;99.90;;;0.24;100.00;-20622.34;4972147;28;20196;-68
2021/04/07 00:21:44;;;;;;;0.70;0.60;;;-0.10;99.90;;;0.19;100.00;-20686.69;4973500;28;20279;-69
2021/04/07 00:24:11;;;;;;;0.70;0.63;;;-0.10;99.90;;;0.03;100.00;-20682.22;4974207;28;20204;-68
2021/04/07 00:26:39;;;;;;;0.70;0.63;;;-0.20;99.90;;;0.01;100.00;-20681.66;4972876;28;20235;-68
2021/04/07 00:29:06;;;;;;;0.70;0.70;;;-0.20;99.90;;;0.11;100.00;-20684.59;4986764;28;20203;-68
2021/04/07 00:31:33;;;;;;;0.77;0.70;;;-0.20;99.90;;;0.11;100.00;-20684.47;4972356;28;20210;-68
2021/04/07 00:34:00;;;;;;;0.80;0.80;;;-0.20;99.90;;;0.13;100.00;-20685.16;4973692;28;20219;-68
2021/04/07 00:36:28;;;;;;;0.80;0.70;;;-0.10;99.90;;;0.08;100.00;-20683.75;4972767;28;20196;-68
2021/04/07 00:38:54;;;;;;;0.70;0.70;;;-0.10;99.90;;;0.19;100.00;-20686.69;4976733;28;20300;-69
2021/04/07 00:41:21;;;;;;;0.75;0.75;;;-0.10;99.90;;;0.12;100.00;-20684.75;4976766;28;20231;-70
2021/04/07 00:43:50;;;;;;;0.70;0.70;;;-0.20;99.90;;;0.28;100.00;-20689.22;4976755;28;20297;-69
2021/04/07 00:46:17;;;;;;;0.70;0.68;;;-0.10;99.90;;;0.13;100.00;-20685.03;4977158;28;20192;-69
2021/04/07 00:48:44;;;;;;;0.70;0.70;;;-0.10;99.90;;;0.09;100.00;-20683.91;4976397;28;20192;-69
2021/04/07 00:51:12;;;;;;;0.77;0.77;;;-0.20;99.90;;;0.15;100.00;-20685.59;4974853;28;20188;-69
2021/04/07 00:53:41;;;;;;;0.70;0.70;;;-0.10;99.90;;;-0.04;100.00;-20680.53;4975845;28;20193;-68
2021/04/07 00:56:08;;;;;;;0.70;0.60;;;-0.20;99.90;;;-0.08;100.00;-20679.41;4975504;28;20205;-68
2021/04/07 00:58:35;;;;;;;0.70;0.70;;;-0.30;99.90;;;-0.05;100.00;-20680.25;4975264;28;20307;-69
2021/04/07 01:01:04;;;;;;;0.70;0.68;;;-0.30;99.90;;;0.00;100.00;-20681.53;4974760;28;20323;-69
2021/04/07 01:03:31;;;;;;;0.70;0.70;;;-0.20;99.90;;;-0.01;100.00;-20681.25;4976594;28;20676;-68
2021/04/07 01:05:58;;;;;;;0.73;0.70;;;-0.20;99.90;;;0.08;100.00;-20683.75;4975559;28;20231;-69
2021/04/07 01:08:26;;;;;;;0.80;0.77;;;-0.20;99.90;;;0.15;100.00;-20685.59;4975336;28;20203;-69
2021/04/07 01:10:53;;;;;;;0.70;0.70;;;-0.10;99.90;;;0.20;100.00;-20687.13;4976890;28;20542;-69
2021/04/07 01:13:20;;;;;;;0.80;0.80;;;-0.10;99.90;;;0.04;100.00;-20682.50;4975959;28;20696;-70
2021/04/07 01:15:47;;;;;;;0.80;0.73;;;-0.20;99.90;;;0.02;100.00;-20681.94;4976100;28;20231;-69
2021/04/07 01:18:15;;;;;;;0.70;0.70;;;-0.20;99.90;;;0.04;100.00;-20682.50;4975057;28;20188;-69
2021/04/07 01:20:43;;;;;;;0.77;0.70;;;-0.20;99.90;;;-0.03;100.00;-20680.81;4976383;28;20200;-69
2021/04/07 01:23:10;;;;;;;1.15;1.05;;;-0.20;99.90;;;-0.01;100.00;-20681.25;4975025;28;20316;-68
2021/04/07 01:25:39;;;;;;;0.80;0.70;;;-0.20;99.90;;;0.14;100.00;-20685.44;4974637;28;20206;-69
2021/04/07 01:28:06;;;;;;;0.70;0.60;;;-0.20;99.90;;;0.27;100.00;-20688.94;4975722;28;20215;-69
2021/04/07 01:30:45;;;;;;;0.80;0.70;;;-0.10;99.90;;;0.23;100.00;-20687.81;4975813;28;20195;-69
2021/04/07 01:33:21;;;;;;;0.70;0.60;;;-0.10;99.90;;;0.37;100.00;-20458.31;4974899;28;20215;-70
2021/04/07 01:35:49;;;;;;;0.80;0.70;;;-0.10;99.90;;;0.43;100.00;-20307.06;4983196;28;20199;-69
2021/04/07 01:38:17;;;;;;;0.70;0.70;;;0.00;99.90;;;0.36;100.00;-20221.50;4976136;28;20188;-69
2021/04/07 01:40:46;;;;;;;0.70;0.70;;;0.00;99.90;;;0.30;100.00;-20101.63;4973349;28;20209;-69
2021/04/07 01:43:16;;;;;;;0.70;0.70;;;-0.10;99.90;;;0.23;100.00;-20116.97;4974327;28;20220;-68
2021/04/07 01:45:45;;;;;;;0.70;0.60;;;-0.10;99.90;;;0.27;100.00;-20014.56;4993159;28;20200;-68
2021/04/07 01:48:14;;;;;;;0.73;0.70;;;-0.10;99.90;;;0.29;100.00;-19953.50;4973576;28;20595;-69
2021/04/07 01:50:41;;;;;;;0.70;0.65;;;-0.10;99.90;;;0.50;100.00;-19648.31;4975502;28;20216;-69
2021/04/07 01:53:10;;;;;;;0.80;0.80;;;0.00;99.90;;;0.51;100.00;-19695.53;4961093;28;20206;-68
2021/04/07 01:55:37;;;;;;;0.80;0.80;;;0.10;99.90;;;0.28;100.00;-19719.19;4974380;28;20545;-69
2021/04/07 01:58:05;;;;;;;0.70;0.60;;;0.00;99.90;;;0.43;100.00;-19459.41;4990490;28;20216;-69
2021/04/07 02:00:33;;;;;;;0.70;0.70;;;0.10;99.90;;;0.45;100.00;-19543.75;4975523;28;20591;-68
2021/04/07 02:03:01;;;;;;;0.70;0.70;;;0.10;99.90;;;0.58;100.00;-19265.81;4973729;28;20198;-69
2021/04/07 02:05:29;;;;;;;0.75;0.70;;;0.20;99.90;;;0.55;100.00;-19149.16;4972640;28;20527;-68
2021/04/07 02:07:56;;;;;;;0.70;0.60;;;0.20;99.90;;;0.60;100.00;-18992.63;4973917;28;20196;-69
2021/04/07 02:10:23;;;;;;;0.80;0.77;;;0.20;99.90;;;0.55;100.00;-18905.19;4975451;28;20193;-70
2021/04/07 02:12:52;;;;;;;0.70;0.60;;;0.20;99.90;;;0.72;100.00;-18490.03;4974316;28;20318;-69
2021/04/07 02:15:21;;;;;;;1.38;1.27;;;0.30;99.90;;;0.84;100.00;-18468.16;4975344;28;20185;-69
2021/04/07 02:17:48;;;;;;;0.70;0.65;;;0.30;99.90;;;0.73;100.00;-18569.19;4973873;28;20196;-69
2021/04/07 02:20:16;;;;;;;0.70;0.60;;;0.30;99.90;;;0.73;100.00;-18680.19;4974122;28;20184;-69
2021/04/07 02:22:44;;;;;;;0.80;0.80;;;0.30;99.90;;;0.64;100.00;-18803.88;4967324;28;20264;-68
2021/04/07 02:25:13;;;;;;;0.77;0.70;;;0.30;99.90;;;0.69;100.00;-18716.34;4975327;28;20188;-69
2021/04/07 02:27:40;;;;;;;0.70;0.60;;;0.20;99.90;;;0.91;100.00;-18188.66;4974803;28;20212;-69
2021/04/07 02:30:11;;;;;;;1.10;1.00;;;0.40;99.90;;;0.96;100.00;-18406.91;4975353;28;20185;-69
2021/04/07 02:32:39;;;;;;;0.70;0.60;;;0.40;99.90;;;0.76;100.00;-18841.28;4973818;28;20204;-69
2021/04/07 02:35:08;;;;;;;0.73;0.70;;;0.40;99.90;;;0.85;100.00;-18537.59;5005974;28;20196;-70
2021/04/07 02:37:35;;;;;;;0.85;0.85;;;0.40;99.90;;;0.83;100.00;-18529.72;4974672;28;20219;-69
2021/04/07 02:40:05;;;;;;;0.80;0.70;;;0.40;99.90;;;0.98;100.00;-18101.25;4975105;28;20204;-69
2021/04/07 02:42:32;;;;;;;0.80;0.80;;;0.40;99.90;;;0.94;100.00;-17930.25;4973060;28;20270;-69
2021/04/07 02:44:59;;;;;;;0.70;0.63;;;0.30;99.90;;;0.95;100.00;-17932.97;4975207;28;20192;-69
2021/04/07 02:47:25;;;;;;;0.70;0.65;;;0.30;99.90;;;0.79;100.00;-18168.53;4974295;28;20204;-69
2021/04/07 02:49:53;;;;;;;0.70;0.60;;;0.30;99.90;;;0.63;100.00;-18186.94;4974645;28;20271;-69
2021/04/07 02:52:21;;;;;;;0.70;0.70;;;0.30;99.90;;;0.69;100.00;-18069.97;4974727;28;20197;-68
2021/04/07 02:54:48;;;;;;;0.70;0.60;;;0.30;99.90;;;0.66;100.00;-18182.84;4974897;28;20534;-69
2021/04/07 02:57:15;;;;;;;0.80;0.80;;;0.30;99.90;;;0.62;100.00;-18329.88;4974158;28;20639;-68
2021/04/07 02:59:42;;;;;;;0.70;0.70;;;0.30;99.90;;;0.79;100.00;-17911.94;4973523;28;20188;-69
2021/04/07 03:02:09;;;;;;;0.70;0.70;;;0.30;99.90;;;0.83;100.00;-17920.28;4974173;28;20215;-69
2021/04/07 03:04:36;;;;;;;0.70;0.60;;;0.40;99.90;;;0.77;100.00;-17886.69;4974258;28;20311;-69
2021/04/07 03:07:04;;;;;;;0.70;0.60;;;0.40;99.90;;;0.95;100.00;-17424.50;4975207;28;20521;-69
2021/04/07 03:09:31;;;;;;;0.80;0.70;;;0.40;99.90;;;0.86;100.00;-17550.81;4974458;28;20188;-69
2021/04/07 03:11:58;;;;;;;0.82;0.82;;;0.30;99.90;;;0.94;100.00;-17236.69;4974205;28;20208;-69
2021/04/07 03:14:25;;;;;;;0.80;0.80;;;0.30;99.90;;;0.77;100.00;-17321.75;4973188;28;20199;-69
2021/04/07 03:16:52;;;;;;;0.70;0.70;;;0.30;99.90;;;0.79;100.00;-17243.09;4974222;28;20251;-68
2021/04/07 03:19:19;;;;;;;0.90;0.90;;;0.20;99.90;;;0.65;100.00;-17405.53;4973882;28;20195;-70
2021/04/07 03:21:46;;;;;;;0.70;0.70;;;0.10;99.90;;;0.64;100.00;-17597.63;4974311;28;20291;-69
2021/04/07 03:24:13;;;;;;;0.80;0.80;;;0.10;99.90;;;0.60;100.00;-17845.84;4974525;28;20275;-69
2021/04/07 03:26:40;;;;;;;0.80;0.80;;;0.20;99.90;;;0.78;100.00;-17413.16;4974140;28;20200;-69
2021/04/07 03:29:07;;;;;;;0.70;0.70;;;0.20;99.90;;;0.72;100.00;-17636.44;4969868;28;20204;-69
2021/04/07 03:31:34;;;;;;;0.70;0.70;;;0.30;99.90;;;0.80;100.00;-17512.31;4972084;28;20188;-69
2021/04/07 03:34:01;;;;;;;0.70;0.60;;;0.30;99.90;;;0.90;100.00;-17418.44;4972846;28;20200;-68
2021/04/07 03:36:28;;;;;;;0.70;0.65;;;0.40;99.90;;;0.94;100.00;-17446.50;4974586;28;20282;-68
2021/04/07 03:38:55;;;;;;;0.80;0.80;;;0.40;99.90;;;1.02;100.00;-17181.56;4974196;28;20614;-68
2021/04/07 03:41:23;;;;;;;0.73;0.70;;;0.50;99.90;;;1.11;100.00;-17023.06;4974187;28;20680;-69
2021/04/07 03:43:50;;;;;;;0.70;0.70;;;0.50;99.90;;;1.01;100.00;-17186.28;4972748;28;20192;-68
2021/04/07 03:46:17;;;;;;;0.70;0.60;;;0.50;99.90;;;1.08;100.00;-16923.53;4972688;28;20192;-68
2021/04/07 03:48:44;;;;;;;1.02;1.02;;;0.50;99.90;;;1.09;100.00;-16862.09;4973226;28;20189;-68
2021/04/07 03:51:11;;;;;;;0.70;0.70;;;0.60;99.90;;;1.00;100.00;-17005.72;4974472;28;20181;-70
2021/04/07 03:53:38;;;;;;;0.75;0.75;;;0.60;99.90;;;1.05;100.00;-16611.84;4973745;28;20210;-68
2021/04/07 03:56:06;;;;;;;0.70;0.60;;;0.60;99.90;;;1.06;100.00;-16515.63;4974080;28;20199;-68
2021/04/07 03:58:34;;;;;;;0.70;0.60;;;0.60;99.90;;;1.22;100.00;-16168.22;4974008;28;20306;-68
2021/04/07 04:01:03;;;;;;;0.70;0.68;;;0.60;99.90;;;1.02;100.00;-16354.28;4973380;28;20204;-68
2021/04/07 04:03:30;;;;;;;0.70;0.70;;;0.60;99.90;;;1.14;100.00;-16267.84;4973288;28;20667;-68
2021/04/07 04:05:57;;;;;;;0.75;0.73;;;0.60;99.90;;;1.16;100.00;-16376.97;4973972;28;20243;-68
2021/04/07 04:08:24;;;;;;;0.70;0.70;;;0.60;99.90;;;1.16;100.00;-16181.81;4973911;28;20656;-69
2021/04/07 04:10:51;;;;;;;0.70;0.70;;;0.60;99.90;;;1.15;100.00;-15813.53;4973922;28;20247;-68
2021/04/07 04:13:18;;;;;;;0.90;0.90;;;0.60;99.90;;;1.09;100.00;-15693.88;4976568;28;20227;-68
2021/04/07 04:15:45;;;;;;;1.92;1.83;;;0.60;99.90;;;1.20;100.00;-15436.50;4976982;28;20668;-68
2021/04/07 04:18:12;;;;;;;0.70;0.70;;;0.60;99.90;;;1.20;100.00;-15888.66;4977079;28;20246;-68
2021/04/07 04:20:40;;;;;;;0.70;0.70;;;0.70;99.90;;;1.10;100.00;-15884.19;4977300;28;20649;-68
2021/04/07 04:23:07;;;;;;;0.70;0.70;;;0.70;99.90;;;1.16;100.00;-15408.56;4977567;28;20192;-68
2021/04/07 04:25:34;;;;;;;0.70;0.60;;;0.70;99.90;;;1.17;100.00;-15013.50;4977366;28;20230;-68
2021/04/07 04:28:01;;;;;;;0.70;0.60;;;0.70;99.90;;;1.11;100.00;-15447.13;4981513;28;20216;-67
2021/04/07 04:30:29;;;;;;;0.80;0.80;;;0.70;99.90;;;0.99;100.00;-15548.56;4975374;28;20679;-68
2021/04/07 04:32:59;;;;;;;0.70;0.70;;;0.70;99.90;;;1.03;100.00;-15035.59;4976629;28;20290;-68
2021/04/07 04:35:26;;;;;;;1.00;0.90;;;0.70;99.90;;;1.19;100.00;-14840.78;4976494;28;20196;-67
2021/04/07 04:37:54;;;;;;;0.82;0.82;;;0.70;99.90;;;1.11;100.00;-15701.59;4974947;28;20200;-68
2021/04/07 04:40:22;;;;;;;0.70;0.60;;;0.80;99.90;;;1.28;100.00;-14629.75;4977512;28;20240;-68
2021/04/07 04:42:49;;;;;;;0.70;0.60;;;0.80;99.90;;;1.23;100.00;-14920.59;4975507;28;20208;-68
2021/04/07 04:45:17;;;;;;;0.70;0.70;;;0.80;99.90;;;1.24;100.00;-14329.97;4976373;28;20176;-68
2021/04/07 04:47:44;;;;;;;0.70;0.65;;;0.70;99.90;;;1.27;100.00;-14004.16;4976371;28;20704;-68
2021/04/07 04:50:13;;;;;;;0.70;0.70;;;0.80;99.90;;;1.26;100.00;-14031.28;4976830;28;20180;-70
2021/04/07 04:52:40;;;;;;;0.70;0.60;;;0.80;99.90;;;1.27;100.00;-13650.69;4976888;28;20275;-67
2021/04/07 04:55:09;;;;;;;0.98;0.88;;;0.80;99.90;;;1.11;100.00;-13470.09;4976613;28;20186;-67
2021/04/07 04:57:37;;;;;;;0.70;0.60;;;0.80;99.90;;;1.34;100.00;-12459.72;4976375;28;20306;-68
2021/04/07 05:00:06;;;;;;;0.93;0.93;;;0.80;99.90;;;1.27;100.00;-12790.13;4976284;28;20610;-68
2021/04/07 05:02:33;;;;;;;0.70;0.60;;;0.80;99.90;;;1.19;100.00;-12655.47;4976299;28;20219;-69
2021/04/07 05:05:00;;;;;;;0.70;0.60;;;0.80;99.90;;;1.33;100.00;-12184.97;4975710;28;20184;-69
2021/04/07 05:07:28;;;;;;;0.70;0.70;;;0.80;99.90;;;1.33;100.00;-12068.69;4977099;28;20199;-68
2021/04/07 05:09:55;;;;;;;0.70;0.60;;;0.80;99.90;;;1.33;100.00;-12113.22;4972387;28;20215;-68
2021/04/07 05:12:22;;;;;;;0.70;0.60;;;0.80;99.90;;;1.23;100.00;-12463.06;4965764;28;20259;-68
2021/04/07 05:14:50;;;;;;;0.90;0.90;;;0.80;99.90;;;1.14;100.00;-12432.19;4976536;28;20191;-68
2021/04/07 05:17:18;;;;;;;0.70;0.70;;;0.80;99.90;;;1.15;100.00;-12011.81;4975526;28;20656;-68
2021/04/07 05:19:45;;;;;;;0.70;0.70;;;0.80;99.90;;;1.33;100.00;-11519.34;4976319;28;20196;-68
2021/04/07 05:22:16;;;;;;;1.20;1.10;;;0.80;99.90;;;1.50;100.00;-11526.41;4976348;28;20218;-68
2021/04/07 05:24:44;;;;;;;1.00;0.90;;;0.90;99.90;;;1.39;100.00;-12000.25;4975983;28;20544;-68
2021/04/07 05:27:10;;;;;;;0.70;0.70;;;0.90;99.90;;;1.31;100.00;-11816.00;4976288;28;20270;-68
2021/04/07 05:29:38;;;;;;;0.70;0.60;;;0.90;99.90;;;1.38;100.00;-11059.75;4975695;28;20224;-68
2021/04/07 05:32:06;;;;;;;0.70;0.70;;;0.90;99.90;;;1.44;100.00;-11043.09;4976244;28;20235;-70
2021/04/07 05:34:33;;;;;;;0.80;0.70;;;1.00;99.90;;;1.43;100.00;-11144.50;4976392;28;20200;-68
2021/04/07 05:37:00;;;;;;;0.70;0.60;;;0.90;99.90;;;1.51;100.00;-10863.22;4975739;28;20619;-68
2021/04/07 05:39:27;;;;;;;0.70;0.63;;;1.00;99.90;;;1.61;100.00;-11072.28;4975942;28;20189;-69
2021/04/07 05:41:55;;;;;;;0.70;0.68;;;1.00;99.90;;;1.36;100.00;-10871.34;4976375;28;20216;-68
2021/04/07 05:44:22;;;;;;;0.70;0.70;;;1.00;99.90;;;1.31;100.00;-10464.94;4976339;28;20565;-68
2021/04/07 05:46:49;;;;;;;0.70;0.60;;;1.00;99.90;;;1.42;100.00;-9312.31;4975439;28;20193;-69
2021/04/07 05:49:16;;;;;;;0.70;0.60;;;1.00;99.90;;;1.36;100.00;-9925.81;4975952;28;20196;-69
2021/04/07 05:51:43;;;;;;;0.70;0.60;;;1.00;99.90;;;1.37;100.00;-8824.00;4975861;28;20552;-68
2021/04/07 05:54:10;;;;;;;0.70;0.60;;;1.00;99.90;;;1.42;100.00;-7717.09;4975409;28;20227;-68
2021/04/07 05:56:37;;;;;;;0.70;0.70;;;1.00;99.90;;;1.60;100.00;-7277.00;4975825;28;20535;-68
2021/04/07 05:59:05;;;;;;;0.70;0.68;;;1.00;99.90;;;1.39;100.00;-7335.31;4975830;28;20188;-68
2021/04/07 06:01:32;;;;;;;0.70;0.70;;;1.00;99.90;;;1.38;100.00;-6953.63;4974521;28;20669;-68
2021/04/07 06:03:59;;;;;;;0.70;0.70;;;1.00;99.90;;;1.35;100.00;-6668.53;4974240;28;20630;-69
2021/04/07 06:06:26;;;;;;;0.70;0.68;;;0.90;99.90;;;1.62;100.00;-6203.63;4975587;28;20547;-68
2021/04/07 06:08:53;;;;;;;0.70;0.60;;;0.90;99.90;;;1.54;100.00;-7222.13;4975682;28;20204;-68
2021/04/07 06:11:20;;;;;;;0.70;0.60;;;0.90;99.90;;;1.63;100.00;-6984.66;4975907;28;20234;-68
2021/04/07 06:13:47;;;;;;;0.70;0.60;;;0.90;99.90;;;1.53;100.00;-7717.72;4975227;28;20184;-68
2021/04/07 06:16:15;;;;;;;0.70;0.60;;;0.90;99.90;;;1.47;100.00;-7598.41;4974933;28;20262;-68
2021/04/07 06:18:43;;;;;;;1.27;1.00;;;0.90;99.90;;;1.49;100.00;-8478.13;4974247;28;20197;-69
2021/04/07 06:21:13;;;;;;;0.70;0.60;;;0.90;99.90;;;1.54;100.00;-9184.56;4975289;28;20200;-68
2021/04/07 06:23:40;;;;;;;0.80;0.80;;;1.00;99.90;;;1.54;100.00;-9781.47;4973977;28;20696;-68
2021/04/07 06:26:07;;;;;;;0.80;0.70;;;1.00;99.90;;;1.62;100.00;-9794.59;4973948;28;20200;-68
2021/04/07 06:28:34;;;;;;;0.70;0.70;;;0.90;99.90;;;1.47;100.00;-10045.69;4974693;28;20280;-68
2021/04/07 06:31:02;;;;;;;0.70;0.60;;;0.90;99.90;;;1.44;100.00;-10104.91;4973236;28;20215;-68
2021/04/07 06:33:32;;;;;;;0.70;0.63;;;0.80;99.90;;;1.32;100.00;-10942.72;4974381;28;20188;-68
2021/04/07 06:36:03;;;;;;;0.70;0.60;;;0.80;99.90;;;1.26;100.00;-12047.88;4972114;28;20193;-69
2021/04/07 06:38:31;;;;;;;1.40;1.00;;;0.70;99.90;;;1.40;100.00;-12544.69;4975247;28;20188;-69
2021/04/07 06:41:00;;;;;;;0.80;0.77;;;0.70;99.90;;;1.31;100.00;-13923.34;4975351;28;20228;-68
2021/04/07 06:43:31;;;;;;;0.70;0.70;;;0.70;99.90;;;1.31;100.00;-15085.19;4974104;28;20212;-69
2021/04/07 06:45:59;;;;;;;0.70;0.60;;;0.70;99.90;;;1.24;100.00;-16316.88;4972162;28;20192;-69
2021/04/07 06:48:28;;;;;;;0.70;0.70;;;0.70;99.90;;;1.32;100.00;-17037.31;4971555;28;20220;-69
2021/04/07 06:50:56;;;;;;;0.70;0.70;;;0.70;99.90;;;1.32;100.00;-17719.13;4964495;28;20193;-69
2021/04/07 06:53:26;;;;;;;0.70;0.70;;;0.70;99.90;;;1.24;100.00;-18262.94;4971131;28;20188;-70
2021/04/07 06:55:53;;;;;;;0.70;0.60;;;0.70;99.90;;;1.29;100.00;-18681.28;4959592;28;20207;-70
2021/04/07 06:58:20;;;;;;;0.70;0.60;;;0.70;99.90;;;1.24;100.00;-19050.31;4973001;28;20247;-70
2021/04/07 07:00:48;;;;;;;0.70;0.70;;;0.70;99.90;;;1.40;100.00;-18824.72;4973448;28;20661;-70
2021/04/07 07:03:17;;;;;;;0.70;0.60;;;0.70;99.90;;;1.24;100.00;-19035.50;4974338;28;20209;-70
2021/04/07 07:05:47;;;;;;;0.70;0.60;;;0.70;99.90;;;1.41;100.00;-18575.72;4974270;28;20211;-69
2021/04/07 07:08:17;;;;;;;0.70;0.60;;;0.80;99.90;;;1.39;100.00;-18426.94;4974633;28;20562;-70
2021/04/07 07:10:46;;;;;;;0.70;0.70;;;0.90;99.90;;;1.44;100.00;-18284.91;4974691;28;20671;-70
2021/04/07 07:13:18;;;;;;;0.80;0.75;;;0.80;99.90;;;1.37;100.00;-18125.31;4974497;28;20294;-69
2021/04/07 07:15:45;;;;;;;0.70;0.70;;;0.90;99.90;;;1.57;100.00;-17613.56;4972683;28;20286;-70
2021/04/07 07:18:20;;;;;;;0.70;0.70;;;0.90;99.90;;;1.57;100.00;-17277.53;4974474;28;20196;-70
2021/04/07 07:20:47;;;;;;;0.70;0.70;;;1.00;99.90;;;1.63;100.00;-16480.56;4983753;28;20203;-69
2021/04/07 07:23:23;;;;;;;0.70;0.60;;;1.00;99.90;;;1.80;100.00;-13421.59;4973410;28;20574;-70
2021/04/07 07:25:56;;;;;;;0.70;0.60;;;1.10;99.90;;;1.62;100.00;-12280.50;4961218;28;20532;-69
2021/04/07 07:28:26;;;;;;;0.80;0.70;;;1.10;99.90;;;1.67;100.00;-11479.13;4973857;28;20291;-69
2021/04/07 07:30:53;;;;;;;0.70;0.70;;;1.20;99.90;;;1.94;100.00;-10167.00;4972071;28;20220;-70
2021/04/07 07:33:22;;;;;;;0.73;0.70;;;1.10;99.90;;;1.71;100.00;-10761.41;4973965;28;20195;-69
2021/04/07 07:35:52;;;;;;;0.70;0.63;;;1.10;99.90;;;1.68;100.00;-10295.53;4973578;28;20188;-70
2021/04/07 07:38:24;;;;;;;0.70;0.60;;;1.10;99.90;;;1.59;100.00;-9853.75;4974089;28;20192;-69
2021/04/07 07:41:02;;;;;;;0.70;0.70;;;1.10;99.90;;;1.58;100.00;-9593.63;4974206;28;20722;-69
2021/04/07 07:43:29;;;;;;;0.70;0.60;;;1.00;99.90;;;1.61;100.00;-9972.81;4974241;28;20212;-69
2021/04/07 07:46:07;;;;;;;0.70;0.68;;;1.00;99.90;;;1.31;100.00;-11410.28;4974954;28;20258;-69
2021/04/07 07:48:35;;;;;;;0.75;0.70;;;1.00;99.90;;;1.31;100.00;-11083.66;4977663;28;20211;-69
2021/04/07 07:51:13;;;;;;;0.70;0.60;;;0.80;99.90;;;1.44;100.00;-11045.56;4977616;28;20212;-70
2021/04/07 07:53:43;;;;;;;0.70;0.60;;;0.70;99.90;;;1.20;100.00;-12272.22;4977797;28;20303;-70
2021/04/07 07:56:11;;;;;;;0.70;0.60;;;0.70;99.90;;;1.16;100.00;-13357.19;4978018;28;20585;-70
2021/04/07 07:58:42;;;;;;;0.70;0.63;;;0.70;99.90;;;1.29;100.00;-13705.41;4977759;28;20207;-70
2021/04/07 08:01:13;;;;;;;0.70;0.60;;;0.70;99.90;;;1.26;100.00;-14090.53;4977772;28;20251;-69
2021/04/07 08:03:41;;;;;;;0.70;0.70;;;0.70;99.90;;;1.47;100.00;-13228.34;4977362;28;20667;-69
2021/04/07 08:06:08;;;;;;;0.70;0.60;;;0.80;99.90;;;1.38;100.00;-12551.81;4977622;28;20196;-69
2021/04/07 08:08:47;;;;;;;0.70;0.60;;;0.90;99.90;;;1.61;100.00;-11230.81;4978189;28;20629;-69
2021/04/07 08:11:15;;;;;;;0.70;0.70;;;0.90;99.90;;;1.51;100.00;-10996.87;4977731;28;20598;-69
2021/04/07 08:13:46;;;;;;;0.70;0.70;;;1.00;99.90;;;1.60;100.00;-10225.38;4976273;28;20220;-68
2021/04/07 08:16:15;;;;;;;0.80;0.80;;;1.00;99.90;;;1.88;100.00;-8793.44;4977985;28;20574;-69
2021/04/07 08:18:44;;;;;;;0.80;0.70;;;1.10;99.90;;;1.76;100.00;-8903.97;4976363;28;20184;-70
2021/04/07 08:21:14;;;;;;;0.70;0.70;;;1.20;99.90;;;2.08;100.00;-7408.69;4976467;28;20647;-68
2021/04/07 08:23:43;;;;;;;0.70;0.70;;;1.20;99.90;;;2.05;100.00;-7150.56;4975447;28;20200;-69
2021/04/07 08:26:14;;;;;;;0.85;0.85;;;1.30;99.90;;;2.13;100.00;-6218.00;4977109;28;20602;-69
2021/04/07 08:28:42;;;;;;;0.77;0.70;;;1.40;99.90;;;2.17;100.00;-6476.25;4977082;28;20212;-69
2021/04/07 08:31:13;;;;;;;0.80;0.70;;;1.40;99.90;;;2.37;100.00;-6248.75;4977109;28;20298;-69
2021/04/07 08:33:45;;;;;;;0.70;0.70;;;1.60;99.90;;;2.56;100.00;-6304.09;4974583;28;20192;-70
2021/04/07 08:36:15;;;;;;;0.70;0.70;;;1.70;99.90;;;2.41;100.00;-7152.50;4975141;28;20222;-70
2021/04/07 08:38:42;;;;;;;0.80;0.70;;;1.70;99.90;;;2.53;100.00;-6050.69;4977388;28;20199;-68
2021/04/07 08:41:22;;;;;;;0.70;0.70;;;1.80;99.90;;;2.87;100.00;-6071.81;4977064;28;20533;-69
2021/04/07 08:43:53;;;;;;;0.80;0.70;;;1.80;99.90;;;2.97;100.00;-7170.38;4976980;28;20187;-70
2021/04/07 08:46:26;;;;;;;0.70;0.60;;;2.00;99.90;;;3.57;100.00;-4815.34;4976607;28;20184;-70
2021/04/07 08:48:54;;;;;;;0.70;0.65;;;2.10;99.90;;;3.65;100.00;-5427.69;4976331;28;20238;-70
2021/04/07 08:51:24;;;;;;;0.70;0.63;;;2.30;99.90;;;3.33;100.00;-6697.53;4976896;28;20720;-69
2021/04/07 08:53:56;;;;;;;0.70;0.60;;;2.00;99.90;;;2.95;100.00;-4359.41;4961709;28;20192;-69
2021/04/07 08:56:27;;;;;;;0.70;0.70;;;1.90;99.90;;;2.34;100.00;-3924.19;4976385;28;20216;-69
2021/04/07 08:58:57;;;;;;;0.70;0.60;;;1.70;99.90;;;2.49;100.00;-747.06;4976181;28;20580;-69
2021/04/07 09:01:33;;;;;;;0.70;0.60;;;1.60;99.90;;;2.68;100.00;2310.63;4975633;28;20279;-69
2021/04/07 09:04:09;;;;;;;0.70;0.60;;;1.90;99.90;;;2.78;100.00;2737.53;4976583;28;20194;-69
2021/04/07 09:06:37;;;;;;;0.70;0.60;;;1.70;99.90;;;3.07;100.00;2950.00;4975145;28;20238;-69
2021/04/07 09:09:07;;;;;;;0.80;0.75;;;1.80;99.90;;;2.70;100.00;1449.25;4976608;28;20196;-70
2021/04/07 09:11:38;;;;;;;1.15;1.05;;;1.70;99.90;;;2.67;100.00;1899.66;4974990;28;20189;-69
2021/04/07 09:14:07;;;;;;;0.70;0.60;;;1.80;99.90;;;2.76;100.00;2545.53;4976590;28;20243;-71
2021/04/07 09:16:37;;;;;;;0.70;0.60;;;1.80;99.90;;;2.89;100.00;3075.16;4974807;28;20250;-71
2021/04/07 09:19:20;;;;;;;0.70;0.60;;;1.80;99.90;;;3.18;100.00;6428.13;4976724;28;20271;-71
2021/04/07 09:21:59;;;;;;;0.70;0.70;;;2.00;99.90;;;3.03;100.00;4275.75;4976503;28;20286;-68
2021/04/07 09:24:35;;;;;;;0.70;0.70;;;2.00;99.90;;;2.90;100.00;4513.38;4976254;28;20203;-69
2021/04/07 09:27:04;;;;;;;0.80;0.70;;;2.10;99.90;;;3.09;100.00;6232.06;4976222;28;20219;-70
2021/04/07 09:29:31;;;;;;;0.70;0.60;;;2.00;99.90;;;2.53;100.00;4570.56;4976036;28;20267;-69
2021/04/07 09:31:58;;;;;;;0.70;0.60;;;2.00;99.90;;;2.76;100.00;5929.91;4975832;28;20670;-70
2021/04/07 09:34:28;;;;;;;0.70;0.60;;;2.00;99.90;;;3.18;100.00;7808.31;4975809;28;20752;-69
2021/04/07 09:36:55;;;;;;;0.70;0.60;;;2.10;99.90;;;3.00;100.00;5175.44;4976138;28;20247;-69
2021/04/07 09:39:26;;;;;;;0.70;0.60;;;2.10;99.90;;;2.95;100.00;5473.91;4974687;28;20678;-70
2021/04/07 09:41:54;;;;;;;0.73;0.70;;;2.10;99.90;;;2.88;100.00;4181.59;4972447;28;20227;-69
2021/04/07 09:44:22;;;;;;;1.27;1.17;;;1.90;99.90;;;2.94;100.00;5421.41;4975816;28;20601;-70
2021/04/07 09:46:56;;;;;;;1.05;0.95;;;2.10;99.90;;;2.98;100.00;5195.16;4975653;28;20716;-70
2021/04/07 09:49:24;;;;;;;0.70;0.60;;;2.00;99.90;;;2.89;100.00;4904.59;4975609;28;20207;-69
2021/04/07 09:51:53;;;;;;;0.70;0.60;;;2.10;99.90;;;3.13;100.00;7912.38;4975713;28;20243;-70
2021/04/07 09:54:22;;;;;;;0.70;0.60;;;2.00;99.90;;;3.14;100.00;6337.59;4974744;28;20187;-69
2021/04/07 09:56:58;;;;;;;0.70;0.50;;;2.00;99.90;;;2.37;100.00;3696.78;4975317;28;20246;-69
2021/04/07 09:59:38;;;;;;;0.70;0.70;;;1.90;99.90;;;2.33;100.00;6521.16;4975683;28;20675;-70
2021/04/07 10:02:08;;;;;;;0.70;0.60;;;1.80;99.90;;;2.06;100.00;5540.19;4973191;28;20196;-69
2021/04/07 10:04:39;;;;;;;0.70;0.70;;;1.60;99.90;;;2.22;100.00;5831.63;4975570;28;20185;-70
2021/04/07 10:07:15;;;;;;;0.70;0.65;;;1.50;99.90;;;2.03;100.00;4643.41;4975490;28;20192;-70
2021/04/07 10:09:45;;;;;;;0.75;0.70;;;1.40;99.90;;;2.16;100.00;4720.00;4975228;28;20176;-70
2021/04/07 10:12:13;;;;;;;0.70;0.70;;;1.40;99.90;;;2.29;100.00;4492.63;4977745;28;20747;-70
2021/04/07 10:14:48;;;;;;;0.70;0.60;;;1.50;99.90;;;2.27;100.00;3705.44;4977918;28;20223;-70
2021/04/07 10:17:18;;;;;;;0.80;0.80;;;1.70;99.90;;;2.49;100.00;4171.41;4974857;28;20687;-70
2021/04/07 10:19:47;;;;;;;0.80;0.70;;;1.70;99.90;;;2.86;100.00;5153.53;4973707;28;20603;-70
2021/04/07 10:22:21;;;;;;;0.70;0.60;;;1.80;99.90;;;2.80;100.00;4130.66;4975274;28;20204;-70
2021/04/07 10:24:50;;;;;;;0.70;0.60;;;1.80;99.90;;;2.94;100.00;4621.06;4972714;28;20637;-70
2021/04/07 10:27:21;;;;;;;0.75;0.70;;;1.80;99.90;;;2.62;100.00;2882.78;4989588;28;20223;-70